Terminal Aerodrome Forecast
Issued by NWS

Home | Current Version | Previous Version | Text Only | Print | Product List | Glossary On
Versions: 1 2 3 4 5 6 7 8 9 10 11 12 13 14 15 16 17 18 19 20
000
FTAK31 PANC 231120
TAFACD
TAF
PACD 231120Z 2312/2412 34032G40KT 5SM -SHSN BKN025
     FM231900 33020G30KT P6SM VCSH SCT025 BKN050
     FM240200 34014G22KT P6SM VCSH SCT025 BKN050=

USA.gov is the U.S. government's official web portal to all federal, state and local government web resources and services.